createdAt,value
2023-01-17T00:02:05.878Z,1.20
2023-01-17T00:04:51.319Z,2.10
2023-01-17T00:07:39.111Z,1.07
2023-01-17T00:10:09.162Z,1.53
2023-01-17T00:12:38.417Z,1.50
2023-01-17T00:15:08.011Z,1.20
2023-01-17T00:17:35.605Z,1.27
2023-01-17T00:20:20.984Z,1.20
2023-01-17T00:23:06.044Z,1.40
2023-01-17T00:25:55.427Z,1.33
2023-01-17T00:28:24.033Z,0.90
2023-01-17T00:30:50.648Z,0.90
2023-01-17T00:33:17.466Z,1.43
2023-01-17T00:35:44.337Z,1.00
2023-01-17T00:38:12.399Z,1.33
2023-01-17T00:40:41.406Z,1.23
2023-01-17T00:43:27.577Z,1.17
2023-01-17T00:46:14.678Z,1.30
2023-01-17T00:49:00.915Z,2.03
2023-01-17T00:51:47.179Z,1.63
2023-01-17T00:54:33.064Z,1.00
2023-01-17T00:57:18.372Z,1.50
2023-01-17T01:00:03.659Z,1.17
2023-01-17T01:02:51.472Z,2.97
2023-01-17T01:05:36.757Z,1.73
2023-01-17T01:08:22.468Z,0.83
2023-01-17T01:11:08.125Z,1.00
2023-01-17T01:13:53.224Z,0.73
2023-01-17T01:16:39.320Z,0.43
2023-01-17T01:19:25.982Z,0.90
2023-01-17T01:22:11.142Z,0.50
2023-01-17T01:24:56.271Z,1.27
2023-01-17T01:27:41.835Z,0.50
2023-01-17T01:30:28.119Z,0.30
2023-01-17T01:33:13.564Z,0.37
2023-01-17T01:35:43.130Z,0.40
2023-01-17T01:38:10.876Z,0.40
2023-01-17T01:40:43.538Z,0.73
2023-01-17T01:43:13.999Z,0.33
2023-01-17T01:45:45.574Z,0.40
2023-01-17T01:48:25.889Z,0.37
2023-01-17T01:50:55.237Z,0.20
2023-01-17T01:53:23.571Z,0.50
2023-01-17T01:55:53.036Z,0.73
2023-01-17T01:58:24.057Z,0.37
2023-01-17T02:00:52.481Z,0.30
2023-01-17T02:03:23.714Z,0.20
2023-01-17T02:05:51.739Z,0.30
2023-01-17T02:08:24.002Z,0.33
2023-01-17T02:10:52.251Z,0.20
2023-01-17T02:13:21.288Z,0.40
2023-01-17T02:16:00.204Z,0.97
2023-01-17T02:18:39.566Z,0.50
2023-01-17T02:21:20.851Z,0.50
2023-01-17T02:24:26.028Z,0.40
2023-01-17T02:27:00.909Z,0.40
2023-01-17T02:30:05.256Z,0.30
2023-01-17T02:32:45.457Z,0.47
2023-01-17T02:35:20.355Z,0.40
2023-01-17T02:37:59.484Z,0.50
2023-01-17T02:40:30.809Z,0.70
2023-01-17T02:43:05.567Z,0.70
2023-01-17T02:45:33.360Z,0.60
2023-01-17T02:48:02.321Z,0.73
2023-01-17T02:50:42.229Z,0.97
2023-01-17T02:53:24.995Z,0.70
2023-01-17T02:55:58.859Z,0.50
2023-01-17T02:58:40.921Z,0.80
2023-01-17T03:01:19.625Z,0.50
2023-01-17T03:03:54.549Z,0.73
2023-01-17T03:06:30.269Z,0.60
2023-01-17T03:08:57.897Z,0.67
2023-01-17T03:11:27.193Z,0.43
2023-01-17T03:13:57.373Z,0.40
2023-01-17T03:16:27.373Z,0.43
2023-01-17T03:18:56.380Z,0.40
2023-01-17T03:21:25.129Z,0.40
2023-01-17T03:23:53.092Z,0.73
2023-01-17T03:26:20.761Z,0.60
2023-01-17T03:28:48.410Z,0.90
2023-01-17T03:31:16.695Z,0.60
2023-01-17T03:33:44.601Z,0.77
2023-01-17T03:36:13.751Z,0.47
2023-01-17T03:38:41.611Z,0.70
2023-01-17T03:41:09.563Z,0.60
2023-01-17T03:43:37.172Z,0.57
2023-01-17T03:46:07.099Z,0.90
2023-01-17T03:48:35.246Z,0.80
2023-01-17T03:51:02.921Z,1.00
2023-01-17T03:53:31.975Z,0.60
2023-01-17T03:56:00.643Z,1.13
2023-01-17T03:58:28.227Z,0.80
2023-01-17T04:00:55.870Z,0.80
2023-01-17T04:03:23.607Z,0.90
2023-01-17T04:05:51.181Z,1.10
2023-01-17T04:08:18.778Z,1.93
2023-01-17T04:10:47.835Z,0.40
2023-01-17T04:13:16.723Z,0.40
2023-01-17T04:15:46.413Z,0.40
2023-01-17T04:18:14.456Z,0.50
2023-01-17T04:20:42.031Z,0.73
2023-01-17T04:23:09.616Z,0.43
2023-01-17T04:25:37.235Z,0.50
2023-01-17T04:28:06.816Z,0.30
2023-01-17T04:30:34.688Z,0.47
2023-01-17T04:33:02.291Z,0.73
2023-01-17T04:35:31.181Z,0.60
2023-01-17T04:37:58.694Z,0.40
2023-01-17T04:40:26.495Z,0.50
2023-01-17T04:42:54.234Z,0.60
2023-01-17T04:45:23.112Z,0.50
2023-01-17T04:47:50.656Z,0.90
2023-01-17T04:50:18.457Z,0.40
2023-01-17T04:52:46.090Z,0.50
2023-01-17T04:55:13.787Z,0.77
2023-01-17T04:57:41.292Z,0.73
2023-01-17T05:00:10.022Z,0.50
2023-01-17T05:02:38.962Z,0.60
2023-01-17T05:05:08.194Z,0.63
2023-01-17T05:07:35.884Z,0.60
2023-01-17T05:10:04.504Z,0.57
2023-01-17T05:12:32.266Z,0.70
2023-01-17T05:14:59.783Z,0.83
2023-01-17T05:17:27.521Z,0.70
2023-01-17T05:19:56.578Z,0.80
2023-01-17T05:22:24.124Z,0.60
2023-01-17T05:24:51.664Z,0.50
2023-01-17T05:27:19.148Z,0.80
2023-01-17T05:29:46.692Z,0.63
2023-01-17T05:32:14.218Z,0.77
2023-01-17T05:34:41.720Z,0.70
2023-01-17T05:37:10.611Z,1.47
2023-01-17T05:39:38.105Z,0.60
2023-01-17T05:42:05.940Z,1.30
2023-01-17T05:44:33.423Z,0.77
2023-01-17T05:47:00.918Z,0.80
2023-01-17T05:49:28.421Z,1.23
2023-01-17T05:51:57.841Z,0.83
2023-01-17T05:54:26.671Z,0.70
2023-01-17T05:56:54.349Z,1.00
2023-01-17T05:59:32.388Z,0.87
2023-01-17T06:02:03.911Z,0.90
2023-01-17T06:04:31.505Z,1.13
2023-01-17T06:06:59.004Z,0.70
2023-01-17T06:09:27.843Z,1.17
2023-01-17T06:11:55.348Z,0.47
2023-01-17T06:14:22.917Z,0.60
2023-01-17T06:16:50.424Z,0.70
2023-01-17T06:19:17.925Z,0.90
2023-01-17T06:21:45.438Z,0.50
2023-01-17T06:24:13.203Z,0.50
2023-01-17T06:26:44.401Z,0.60
2023-01-17T06:29:12.208Z,0.70
2023-01-17T06:31:39.733Z,0.47
2023-01-17T06:34:07.325Z,0.60
2023-01-17T06:36:34.954Z,0.60
2023-01-17T06:39:02.459Z,0.60
2023-01-17T06:41:29.955Z,0.60
2023-01-17T06:43:58.768Z,0.70
2023-01-17T06:46:26.319Z,0.40
2023-01-17T06:48:53.881Z,0.60
2023-01-17T06:51:21.822Z,1.13
2023-01-17T06:53:49.483Z,2.20
2023-01-17T06:56:17.201Z,0.63
2023-01-17T06:58:44.696Z,0.77
2023-01-17T07:01:14.184Z,0.70
2023-01-17T07:03:41.977Z,1.00
2023-01-17T07:06:10.068Z,0.60
2023-01-17T07:08:37.932Z,0.50
2023-01-17T07:11:07.843Z,0.63
2023-01-17T07:13:36.611Z,0.73
2023-01-17T07:16:05.273Z,1.03
2023-01-17T07:18:35.359Z,0.93
2023-01-17T07:21:02.895Z,1.33
2023-01-17T07:23:30.490Z,1.00
2023-01-17T07:25:59.649Z,1.07
2023-01-17T07:28:29.035Z,0.50
2023-01-17T07:30:57.347Z,0.37
2023-01-17T07:33:24.928Z,0.43
2023-01-17T07:35:53.777Z,0.30
2023-01-17T07:38:21.632Z,0.43
2023-01-17T07:40:49.172Z,1.03
2023-01-17T07:43:17.289Z,0.70
2023-01-17T07:45:46.146Z,0.80
2023-01-17T07:48:14.126Z,1.17
2023-01-17T07:50:41.697Z,1.17
2023-01-17T07:53:11.210Z,0.37
2023-01-17T07:55:38.781Z,0.50
2023-01-17T07:58:06.382Z,0.40
2023-01-17T08:00:34.013Z,2.10
2023-01-17T08:03:02.116Z,0.50
2023-01-17T08:05:31.186Z,0.83
2023-01-17T08:07:58.780Z,0.40
2023-01-17T08:10:27.671Z,0.80
2023-01-17T08:12:55.343Z,0.57
2023-01-17T08:15:23.494Z,1.40
2023-01-17T08:17:53.168Z,0.90
2023-01-17T08:20:22.178Z,0.40
2023-01-17T08:22:49.825Z,0.80
2023-01-17T08:25:17.382Z,0.40
2023-01-17T08:27:46.247Z,0.40
2023-01-17T08:30:14.265Z,0.30
2023-01-17T08:32:41.794Z,0.30
2023-01-17T08:35:10.377Z,0.83
2023-01-17T08:37:39.009Z,0.40
2023-01-17T08:40:08.775Z,1.03
2023-01-17T08:42:39.202Z,0.47
2023-01-17T08:45:11.769Z,0.87
2023-01-17T08:47:39.465Z,0.27
2023-01-17T08:50:07.875Z,0.67
2023-01-17T08:52:35.999Z,0.80
2023-01-17T08:55:03.756Z,0.80
2023-01-17T08:57:31.942Z,0.63
2023-01-17T08:59:59.777Z,0.87
2023-01-17T09:02:28.627Z,0.80
2023-01-17T09:04:56.136Z,1.03
2023-01-17T09:07:24.347Z,0.87
2023-01-17T09:09:52.679Z,0.90
2023-01-17T09:12:22.125Z,1.20
2023-01-17T09:14:50.204Z,0.60
2023-01-17T09:17:17.694Z,0.30
2023-01-17T09:19:48.626Z,1.00
2023-01-17T09:22:16.388Z,0.30
2023-01-17T09:24:43.947Z,0.50
2023-01-17T09:27:11.498Z,0.50
2023-01-17T09:29:38.989Z,0.87
2023-01-17T09:32:06.740Z,1.10
2023-01-17T09:34:34.309Z,0.40
2023-01-17T09:37:03.192Z,0.47
2023-01-17T09:39:30.733Z,1.43
2023-01-17T09:42:04.013Z,0.93
2023-01-17T09:44:42.262Z,2.17
2023-01-17T09:47:19.921Z,0.50
2023-01-17T09:49:48.410Z,0.90
2023-01-17T09:52:20.930Z,0.43
2023-01-17T09:54:50.066Z,0.30
2023-01-17T09:57:31.990Z,1.43
2023-01-17T10:00:07.697Z,2.37
2023-01-17T10:02:51.748Z,2.23
2023-01-17T10:05:33.713Z,1.10
2023-01-17T10:08:14.730Z,1.00
2023-01-17T10:10:44.144Z,1.67
2023-01-17T10:13:27.548Z,1.60
2023-01-17T10:16:13.370Z,0.77
2023-01-17T10:18:57.044Z,0.83
2023-01-17T10:21:34.613Z,1.57
2023-01-17T10:24:25.032Z,1.23
2023-01-17T10:26:56.209Z,1.67
2023-01-17T10:29:27.935Z,3.00
2023-01-17T10:32:00.523Z,2.40
2023-01-17T10:34:34.019Z,2.03
2023-01-17T10:37:07.179Z,1.13
2023-01-17T10:39:36.442Z,1.97
2023-01-17T10:42:14.299Z,1.43
2023-01-17T10:44:47.138Z,2.47
2023-01-17T10:47:20.689Z,1.10
2023-01-17T10:49:51.963Z,1.83
2023-01-17T10:52:31.096Z,1.47
2023-01-17T10:55:11.459Z,0.87
2023-01-17T10:57:42.670Z,2.43
2023-01-17T11:00:49.000Z,1.47
2023-01-17T11:03:20.701Z,2.60
2023-01-17T11:06:16.360Z,3.90
2023-01-17T11:08:51.868Z,1.77
2023-01-17T11:11:21.641Z,1.60
2023-01-17T11:13:50.203Z,1.07
2023-01-17T11:16:21.112Z,1.27
2023-01-17T11:19:05.488Z,0.93
2023-01-17T11:21:33.758Z,2.07
2023-01-17T11:24:11.411Z,1.03
2023-01-17T11:26:49.313Z,1.83
2023-01-17T11:29:29.631Z,1.63
2023-01-17T11:31:57.413Z,3.93
2023-01-17T11:34:26.440Z,3.03
2023-01-17T11:37:09.862Z,1.57
2023-01-17T11:39:37.417Z,1.87
2023-01-17T11:42:32.880Z,0.57
2023-01-17T11:45:24.384Z,3.37
2023-01-17T11:48:10.101Z,3.13
2023-01-17T11:50:39.952Z,3.07
2023-01-17T11:53:15.593Z,1.87
2023-01-17T11:55:53.885Z,2.23
2023-01-17T11:58:24.133Z,4.37
2023-01-17T12:01:00.414Z,3.13
2023-01-17T12:03:58.019Z,3.53
2023-01-17T12:06:44.792Z,2.27
2023-01-17T12:09:28.352Z,3.60
2023-01-17T12:12:22.068Z,1.90
2023-01-17T12:15:03.180Z,4.80
2023-01-17T12:17:45.326Z,4.60
2023-01-17T12:20:23.852Z,3.00
2023-01-17T12:23:17.659Z,2.40
2023-01-17T12:25:57.718Z,3.33
2023-01-17T12:28:47.174Z,3.00
2023-01-17T12:31:28.755Z,2.27
2023-01-17T12:34:02.902Z,1.87
2023-01-17T12:36:40.779Z,1.73
2023-01-17T12:39:11.841Z,1.80
2023-01-17T12:41:57.369Z,2.20
2023-01-17T12:44:38.974Z,3.20
2023-01-17T12:47:08.247Z,2.60
2023-01-17T12:49:42.549Z,1.20
2023-01-17T12:52:19.306Z,1.07
2023-01-17T12:54:51.412Z,1.73
2023-01-17T12:57:23.384Z,3.07
2023-01-17T12:59:59.122Z,2.97
2023-01-17T13:02:37.335Z,2.10
2023-01-17T13:05:09.783Z,3.37
2023-01-17T13:07:46.730Z,1.60
2023-01-17T13:10:31.849Z,1.83
2023-01-17T13:13:05.736Z,0.70
2023-01-17T13:15:37.513Z,1.17
2023-01-17T13:18:11.522Z,1.63
2023-01-17T13:20:57.840Z,3.23
2023-01-17T13:23:31.567Z,2.27
2023-01-17T13:26:00.153Z,2.70
2023-01-17T13:28:44.870Z,1.37
2023-01-17T13:31:24.203Z,1.87
2023-01-17T13:34:12.192Z,2.20
2023-01-17T13:36:57.834Z,5.30
2023-01-17T13:39:44.636Z,1.73
2023-01-17T13:42:23.598Z,2.63
2023-01-17T13:44:51.464Z,1.33
2023-01-17T13:47:49.410Z,1.63
2023-01-17T13:50:50.459Z,1.10
2023-01-17T13:53:57.166Z,3.27
2023-01-17T13:56:35.305Z,1.60
2023-01-17T13:59:05.598Z,1.03
2023-01-17T14:01:53.309Z,1.23
2023-01-17T14:04:22.162Z,2.73
2023-01-17T14:06:56.762Z,2.13
2023-01-17T14:09:28.659Z,2.50
2023-01-17T14:12:03.697Z,1.17
2023-01-17T14:14:45.456Z,2.23
2023-01-17T14:17:47.988Z,2.57
2023-01-17T14:20:51.262Z,2.77
2023-01-17T14:23:36.020Z,2.27
2023-01-17T14:26:21.934Z,1.83
2023-01-17T14:28:49.837Z,2.80
2023-01-17T14:31:19.211Z,3.47
2023-01-17T14:33:46.734Z,2.77
2023-01-17T14:36:24.857Z,0.60
2023-01-17T14:38:54.563Z,1.20
2023-01-17T14:41:25.371Z,0.63
2023-01-17T14:43:53.337Z,1.67
2023-01-17T14:46:26.095Z,0.83
2023-01-17T14:49:00.575Z,1.20
2023-01-17T14:51:28.384Z,1.17
2023-01-17T14:53:58.767Z,1.30
2023-01-17T14:56:27.986Z,2.27
2023-01-17T14:59:06.567Z,1.13
2023-01-17T15:01:36.224Z,1.67
2023-01-17T15:04:04.958Z,1.47
2023-01-17T15:06:38.693Z,1.47
2023-01-17T15:09:19.441Z,2.03
2023-01-17T15:11:48.712Z,1.60
2023-01-17T15:14:22.096Z,1.70
2023-01-17T15:16:51.936Z,2.27
2023-01-17T15:19:20.406Z,1.90
2023-01-17T15:21:50.816Z,1.20
2023-01-17T15:24:23.520Z,2.17
2023-01-17T15:26:51.688Z,0.83
2023-01-17T15:29:25.979Z,0.80
2023-01-17T15:31:58.123Z,1.07
2023-01-17T15:34:30.402Z,0.77
2023-01-17T15:37:01.079Z,0.63
2023-01-17T15:39:32.587Z,0.87
2023-01-17T15:42:03.588Z,0.50
2023-01-17T15:44:50.242Z,0.83
2023-01-17T15:47:28.971Z,0.67
2023-01-17T15:49:56.675Z,0.60
2023-01-17T15:52:24.284Z,0.50
2023-01-17T15:54:54.730Z,0.77
2023-01-17T15:57:26.771Z,0.60
2023-01-17T16:00:01.050Z,0.60
2023-01-17T16:02:37.394Z,0.60
2023-01-17T16:05:33.291Z,0.70
2023-01-17T16:08:33.570Z,0.80
2023-01-17T16:11:06.244Z,0.80
2023-01-17T16:13:37.104Z,0.93
2023-01-17T16:16:16.906Z,0.90
2023-01-17T16:18:46.417Z,0.80
2023-01-17T16:21:19.631Z,0.90
2023-01-17T16:23:47.197Z,0.97
2023-01-17T16:26:16.799Z,1.43
2023-01-17T16:28:44.584Z,1.17
2023-01-17T16:31:12.533Z,1.73
2023-01-17T16:33:42.021Z,0.90
2023-01-17T16:36:14.797Z,0.60
2023-01-17T16:38:43.317Z,0.70
2023-01-17T16:41:11.396Z,0.83
2023-01-17T16:43:40.329Z,0.90
2023-01-17T16:46:08.221Z,1.87
2023-01-17T16:48:38.251Z,0.87
2023-01-17T16:51:07.883Z,0.70
2023-01-17T16:53:37.000Z,0.60
2023-01-17T16:56:11.915Z,0.60
2023-01-17T16:58:41.833Z,0.80
2023-01-17T17:01:10.686Z,0.83
2023-01-17T17:03:38.473Z,0.60
2023-01-17T17:06:06.315Z,0.87
2023-01-17T17:08:34.989Z,1.40
2023-01-17T17:11:13.139Z,0.93
2023-01-17T17:13:43.079Z,1.47
2023-01-17T17:16:12.878Z,0.70
2023-01-17T17:18:40.452Z,2.00
2023-01-17T17:21:08.382Z,0.97
2023-01-17T17:23:35.861Z,0.80
2023-01-17T17:26:03.434Z,0.80
2023-01-17T17:28:30.993Z,0.60
2023-01-17T17:31:10.275Z,0.80
2023-01-17T17:33:38.697Z,0.60
2023-01-17T17:36:09.983Z,1.10
2023-01-17T17:38:38.041Z,1.43
2023-01-17T17:41:07.393Z,1.23
2023-01-17T17:43:40.476Z,5.93
2023-01-17T17:46:09.952Z,3.00
2023-01-17T17:48:37.826Z,3.23
2023-01-17T17:51:06.266Z,2.03
2023-01-17T17:53:34.485Z,2.57
2023-01-17T17:56:07.028Z,2.70
2023-01-17T17:58:36.196Z,1.90
2023-01-17T18:01:05.473Z,2.93
2023-01-17T18:03:35.115Z,3.20
2023-01-17T18:06:05.026Z,2.73
2023-01-17T18:08:33.650Z,2.50
2023-01-17T18:11:02.876Z,2.97
2023-01-17T18:13:31.650Z,2.33
2023-01-17T18:16:05.546Z,2.47
2023-01-17T18:18:35.157Z,2.50
2023-01-17T18:21:08.655Z,2.40
2023-01-17T18:23:38.264Z,3.90
2023-01-17T18:26:06.235Z,3.20
2023-01-17T18:28:33.976Z,3.83
2023-01-17T18:31:07.135Z,3.17
2023-01-17T18:33:38.572Z,3.23
2023-01-17T18:36:08.115Z,3.27
2023-01-17T18:38:39.661Z,3.37
2023-01-17T18:41:08.407Z,3.83
2023-01-17T18:43:36.583Z,3.43
2023-01-17T18:46:04.688Z,5.60
2023-01-17T18:48:32.259Z,3.93
2023-01-17T18:51:03.356Z,4.13
2023-01-17T18:53:31.611Z,4.20
2023-01-17T18:56:00.822Z,4.83
2023-01-17T18:58:29.615Z,3.73
2023-01-17T19:01:07.257Z,4.37
2023-01-17T19:03:34.949Z,3.40
2023-01-17T19:06:05.734Z,5.20
2023-01-17T19:08:34.932Z,6.93
2023-01-17T19:11:04.243Z,11.70
2023-01-17T19:13:32.628Z,10.07
2023-01-17T19:16:01.393Z,10.23
2023-01-17T19:18:29.565Z,7.90
2023-01-17T19:20:57.187Z,7.23
2023-01-17T19:23:25.995Z,7.70
2023-01-17T19:25:55.631Z,8.70
2023-01-17T19:28:23.229Z,7.97
2023-01-17T19:31:02.420Z,8.03
2023-01-17T19:33:29.915Z,7.60
2023-01-17T19:35:59.930Z,8.50
2023-01-17T19:38:28.871Z,7.07
2023-01-17T19:40:56.538Z,7.23
2023-01-17T19:43:24.370Z,7.67
2023-01-17T19:45:59.427Z,10.17
2023-01-17T19:48:27.842Z,9.70
2023-01-17T19:50:56.105Z,9.67
2023-01-17T19:53:24.168Z,9.47
2023-01-17T19:55:52.976Z,8.67
2023-01-17T19:58:20.453Z,8.17
2023-01-17T20:00:48.094Z,9.10
2023-01-17T20:03:15.678Z,10.20
2023-01-17T20:05:44.859Z,9.47
2023-01-17T20:08:12.325Z,8.80
2023-01-17T20:10:39.805Z,8.60
2023-01-17T20:13:08.890Z,8.33
2023-01-17T20:15:36.385Z,8.03
2023-01-17T20:18:03.912Z,8.13
2023-01-17T20:20:32.538Z,11.50
2023-01-17T20:23:01.200Z,12.00
2023-01-17T20:25:28.863Z,15.40
2023-01-17T20:27:56.730Z,17.60
2023-01-17T20:30:29.934Z,18.10
2023-01-17T20:32:57.658Z,20.80
2023-01-17T20:35:25.358Z,14.77
2023-01-17T20:37:53.017Z,15.00
2023-01-17T20:40:20.761Z,15.73
2023-01-17T20:42:48.337Z,18.73
2023-01-17T20:45:16.127Z,17.03
2023-01-17T20:47:45.107Z,15.13
2023-01-17T20:50:12.915Z,13.27
2023-01-17T20:52:40.387Z,15.33
2023-01-17T20:55:09.189Z,14.67
2023-01-17T20:57:36.661Z,12.43
2023-01-17T21:00:05.735Z,14.20
2023-01-17T21:02:33.328Z,17.80
2023-01-17T21:05:03.644Z,13.30
2023-01-17T21:07:31.157Z,11.47
2023-01-17T21:09:58.637Z,9.93
2023-01-17T21:12:26.193Z,9.97
2023-01-17T21:14:53.774Z,9.47
2023-01-17T21:17:21.274Z,7.37
2023-01-17T21:19:48.747Z,8.73
2023-01-17T21:22:17.807Z,8.37
2023-01-17T21:24:45.359Z,9.17
2023-01-17T21:27:12.916Z,9.30
2023-01-17T21:29:40.465Z,8.63
2023-01-17T21:32:08.665Z,9.63
2023-01-17T21:34:36.176Z,7.57
2023-01-17T21:37:03.672Z,6.73
2023-01-17T21:39:32.627Z,6.37
2023-01-17T21:42:00.148Z,5.80
2023-01-17T21:44:27.646Z,5.83
2023-01-17T21:46:56.572Z,5.27
2023-01-17T21:49:24.545Z,5.13
2023-01-17T21:52:09.720Z,4.67
2023-01-17T21:54:56.142Z,4.80
2023-01-17T21:57:41.862Z,3.73
2023-01-17T22:00:14.304Z,4.00
2023-01-17T22:02:43.519Z,3.73
2023-01-17T22:05:11.499Z,5.33
2023-01-17T22:07:39.927Z,4.60
2023-01-17T22:10:10.068Z,5.60
2023-01-17T22:12:37.555Z,5.37
2023-01-17T22:15:06.197Z,4.97
2023-01-17T22:17:33.965Z,5.17
2023-01-17T22:20:01.469Z,4.63
2023-01-17T22:22:32.979Z,6.87
2023-01-17T22:25:00.479Z,5.97
2023-01-17T22:27:30.134Z,6.10
2023-01-17T22:29:57.618Z,5.57
2023-01-17T22:32:25.230Z,6.03
2023-01-17T22:34:53.496Z,4.97
2023-01-17T22:37:21.005Z,4.30
2023-01-17T22:39:48.481Z,4.73
2023-01-17T22:42:16.594Z,6.07
2023-01-17T22:44:45.647Z,4.03
2023-01-17T22:47:13.333Z,4.93
2023-01-17T22:49:40.861Z,4.93
2023-01-17T22:52:08.510Z,4.10
2023-01-17T22:54:35.965Z,3.80
2023-01-17T22:57:03.479Z,4.50
2023-01-17T22:59:33.784Z,4.50
2023-01-17T23:02:02.721Z,3.67
2023-01-17T23:04:30.251Z,4.53
2023-01-17T23:06:57.768Z,4.73
2023-01-17T23:09:25.284Z,3.80
2023-01-17T23:11:55.092Z,3.27
2023-01-17T23:14:24.675Z,3.93
2023-01-17T23:17:11.737Z,3.73
2023-01-17T23:19:42.567Z,3.37
2023-01-17T23:22:19.237Z,3.43
2023-01-17T23:24:53.371Z,3.43
2023-01-17T23:27:40.594Z,4.47
2023-01-17T23:30:11.676Z,3.30
2023-01-17T23:32:40.014Z,3.23
2023-01-17T23:35:09.191Z,3.10
2023-01-17T23:37:54.680Z,3.50
2023-01-17T23:40:22.295Z,3.53
2023-01-17T23:43:07.828Z,4.53
2023-01-17T23:45:36.620Z,3.00
2023-01-17T23:48:05.580Z,3.30
2023-01-17T23:50:34.521Z,3.23
2023-01-17T23:53:06.784Z,3.20
2023-01-17T23:55:35.902Z,2.93
2023-01-17T23:58:03.632Z,2.80
